Time;durP1;ratioP1;P1;durP2;ratioP2;P2;SDS_P1;SDS_P2;PMS_P1;PMS_P2;Temp;Humidity;BMP_temperature;BMP_pressure;BME280_temperature;BME280_humidity;BME280_pressure;Samples;Min_cycle;Max_cycle;Signal;HPM_P1;HPM_P2
2021/03/03 00:00:41;;;;;;;22.50;13.70;;;5.00;99.90;;;;;;4991164;28;20187;-70
2021/03/03 00:03:07;;;;;;;22.43;13.43;;;5.00;99.90;;;;;;4991056;28;20292;-69
2021/03/03 00:05:33;;;;;;;21.90;13.03;;;4.90;99.90;;;;;;4990849;28;20179;-70
2021/03/03 00:07:58;;;;;;;20.97;13.63;;;4.80;99.90;;;;;;4991526;28;20173;-70
2021/03/03 00:10:24;;;;;;;23.53;14.33;;;4.80;99.90;;;;;;4991449;28;20592;-69
2021/03/03 00:12:49;;;;;;;20.47;13.13;;;4.80;99.90;;;;;;4990821;28;20188;-69
2021/03/03 00:15:15;;;;;;;24.77;14.10;;;5.00;99.90;;;;;;4991070;28;20181;-69
2021/03/03 00:17:41;;;;;;;21.40;13.10;;;5.10;99.90;;;;;;4990577;28;20631;-69
2021/03/03 00:20:08;;;;;;;23.00;13.50;;;5.00;99.90;;;;;;4990884;28;20427;-69
2021/03/03 00:22:33;;;;;;;23.50;14.53;;;4.90;99.90;;;;;;4990758;28;20228;-68
2021/03/03 00:24:59;;;;;;;24.93;14.37;;;4.90;99.90;;;;;;4990847;28;20451;-69
2021/03/03 00:27:25;;;;;;;30.20;13.67;;;5.10;99.90;;;;;;4990857;28;20187;-69
2021/03/03 00:29:50;;;;;;;20.33;13.37;;;5.00;99.90;;;;;;4990629;28;20219;-69
2021/03/03 00:32:16;;;;;;;23.20;13.50;;;5.10;99.90;;;;;;4990731;28;20184;-68
2021/03/03 00:34:42;;;;;;;22.43;12.63;;;5.10;99.90;;;;;;4990659;28;20200;-69
2021/03/03 00:37:08;;;;;;;24.10;13.57;;;5.00;99.90;;;;;;4990753;28;20424;-69
2021/03/03 00:39:34;;;;;;;19.93;12.73;;;4.90;99.90;;;;;;4990702;28;20180;-69
2021/03/03 00:41:59;;;;;;;24.03;13.37;;;4.80;99.90;;;;;;4991018;28;20241;-69
2021/03/03 00:44:25;;;;;;;23.67;14.37;;;4.80;99.90;;;;;;4990736;28;20172;-68
2021/03/03 00:46:51;;;;;;;24.37;13.10;;;4.70;99.90;;;;;;4990529;28;20744;-69
2021/03/03 00:49:16;;;;;;;20.70;13.00;;;4.70;99.90;;;;;;4990624;28;20192;-69
2021/03/03 00:51:42;;;;;;;22.73;13.10;;;4.60;99.90;;;;;;4990653;28;20173;-69
2021/03/03 00:54:08;;;;;;;18.23;13.20;;;4.60;99.90;;;;;;4990603;28;20256;-69
2021/03/03 00:56:33;;;;;;;22.73;13.90;;;4.60;99.90;;;;;;4992044;28;20208;-69
2021/03/03 00:58:59;;;;;;;23.93;12.27;;;4.60;99.90;;;;;;4990522;28;20205;-69
2021/03/03 01:01:24;;;;;;;20.30;13.07;;;4.60;99.90;;;;;;4990580;28;20224;-69
2021/03/03 01:03:50;;;;;;;22.27;13.43;;;4.70;99.90;;;;;;4991827;28;20181;-68
2021/03/03 01:06:15;;;;;;;20.73;12.77;;;4.80;99.90;;;;;;4994347;28;20181;-70
2021/03/03 01:08:41;;;;;;;22.10;12.93;;;4.90;99.90;;;;;;4994410;28;20173;-69
2021/03/03 01:11:08;;;;;;;20.87;12.77;;;4.70;99.90;;;;;;4992654;28;20180;-69
2021/03/03 01:13:35;;;;;;;19.57;13.47;;;4.70;99.90;;;;;;4994360;28;20194;-69
2021/03/03 01:16:01;;;;;;;26.90;14.40;;;4.70;99.90;;;;;;4994126;28;20416;-68
2021/03/03 01:18:27;;;;;;;17.97;12.20;;;4.60;99.90;;;;;;4994149;28;20468;-70
2021/03/03 01:20:52;;;;;;;20.07;13.37;;;4.60;99.90;;;;;;4993897;28;20192;-69
2021/03/03 01:23:18;;;;;;;23.33;12.80;;;4.50;99.90;;;;;;4993783;28;20208;-68
2021/03/03 01:25:44;;;;;;;20.00;12.47;;;4.50;99.90;;;;;;4994178;28;20177;-70
2021/03/03 01:28:10;;;;;;;20.30;12.47;;;4.40;99.90;;;;;;4993750;28;20261;-69
2021/03/03 01:30:36;;;;;;;22.57;12.97;;;4.40;99.90;;;;;;4976370;28;20261;-69
2021/03/03 01:33:02;;;;;;;20.20;12.27;;;4.40;99.90;;;;;;4994168;28;20180;-69
2021/03/03 01:35:27;;;;;;;21.30;12.27;;;4.50;99.90;;;;;;4992511;28;20420;-70
2021/03/03 01:37:53;;;;;;;20.33;12.43;;;4.50;99.90;;;;;;4993732;28;20902;-68
2021/03/03 01:40:19;;;;;;;19.27;12.30;;;4.50;99.90;;;;;;4993747;28;20701;-68
2021/03/03 01:42:44;;;;;;;19.07;12.50;;;4.60;99.90;;;;;;4993962;28;20188;-69
2021/03/03 01:45:11;;;;;;;16.33;11.10;;;4.60;99.90;;;;;;4993408;28;20300;-69
2021/03/03 01:47:37;;;;;;;25.47;12.33;;;4.50;99.90;;;;;;4993890;28;20268;-69
2021/03/03 01:50:06;;;;;;;24.07;12.13;;;4.50;99.90;;;;;;4993565;28;20412;-69
2021/03/03 01:52:32;;;;;;;21.63;12.50;;;4.40;99.90;;;;;;4993805;28;20978;-68
2021/03/03 01:54:58;;;;;;;23.03;13.43;;;4.50;99.90;;;;;;4995706;28;20479;-69
2021/03/03 01:57:24;;;;;;;22.57;12.50;;;4.40;99.90;;;;;;5032664;28;20418;-68
2021/03/03 01:59:50;;;;;;;26.50;13.33;;;4.40;99.90;;;;;;5032947;28;20287;-68
2021/03/03 02:02:15;;;;;;;21.30;11.57;;;4.60;99.90;;;;;;5032531;28;20545;-69
2021/03/03 02:04:41;;;;;;;19.43;12.33;;;4.60;99.90;;;;;;5032741;28;20187;-69
2021/03/03 02:07:47;;;;;;;21.27;12.30;;;4.80;99.90;;;;;;5032791;28;20576;-69
2021/03/03 02:10:46;;;;;;;22.13;12.30;;;4.80;99.90;;;;;;5032258;28;20188;-69
2021/03/03 02:13:42;;;;;;;18.60;12.43;;;4.70;99.90;;;;;;5032551;28;20418;-68
2021/03/03 02:16:10;;;;;;;22.13;13.63;;;4.60;99.90;;;;;;5032081;28;20410;-68
2021/03/03 02:18:37;;;;;;;22.83;13.50;;;4.50;99.90;;;;;;5032434;28;20426;-69
2021/03/03 02:21:18;;;;;;;20.40;12.60;;;4.60;99.90;;;;;;5032706;28;20442;-69
2021/03/03 02:24:04;;;;;;;21.97;13.83;;;4.50;99.90;;;;;;5032026;28;20546;-69
2021/03/03 02:26:34;;;;;;;22.63;12.90;;;4.40;99.90;;;;;;5032178;28;20455;-68
2021/03/03 02:29:24;;;;;;;22.23;13.27;;;4.30;99.90;;;;;;5032101;28;20513;-68
2021/03/03 02:31:51;;;;;;;21.37;12.80;;;4.20;99.90;;;;;;5021889;28;20462;-69
2021/03/03 02:34:21;;;;;;;19.60;12.47;;;4.20;99.90;;;;;;5032311;28;20517;-69
2021/03/03 02:36:55;;;;;;;19.30;11.50;;;4.30;99.90;;;;;;5014625;28;20924;-69
2021/03/03 02:39:24;;;;;;;19.40;12.03;;;4.30;99.90;;;;;;5016418;28;20415;-67
2021/03/03 02:41:50;;;;;;;22.20;13.73;;;4.30;99.90;;;;;;5013951;28;20496;-69
2021/03/03 02:44:16;;;;;;;21.07;12.97;;;4.30;99.90;;;;;;5032136;28;20763;-70
2021/03/03 02:46:46;;;;;;;23.50;13.17;;;4.20;99.90;;;;;;5031928;28;20506;-69
2021/03/03 02:49:15;;;;;;;20.40;12.80;;;4.20;99.90;;;;;;5031654;28;20407;-69
2021/03/03 02:51:41;;;;;;;23.83;13.83;;;4.20;99.90;;;;;;5031868;28;20415;-68
2021/03/03 02:54:12;;;;;;;24.10;12.67;;;4.10;99.90;;;;;;5032265;28;20430;-68
2021/03/03 02:56:37;;;;;;;20.00;13.57;;;4.10;99.90;;;;;;5019622;28;20294;-69
2021/03/03 02:59:13;;;;;;;24.87;13.23;;;4.10;99.90;;;;;;5011659;28;20495;-69
2021/03/03 03:01:41;;;;;;;21.20;12.23;;;4.10;99.90;;;;;;5011102;28;20172;-69
2021/03/03 03:04:12;;;;;;;20.67;12.13;;;4.00;99.90;;;;;;5011704;28;20415;-69
2021/03/03 03:06:41;;;;;;;21.77;12.77;;;4.00;99.90;;;;;;5011752;28;20819;-69
2021/03/03 03:09:11;;;;;;;21.03;12.40;;;4.20;99.90;;;;;;4994483;28;20481;-69
2021/03/03 03:11:51;;;;;;;21.57;12.70;;;4.10;99.90;;;;;;5011749;28;20740;-69
2021/03/03 03:14:27;;;;;;;23.87;13.40;;;4.00;99.90;;;;;;5011713;28;20470;-69
2021/03/03 03:16:54;;;;;;;22.23;12.80;;;3.90;99.90;;;;;;5011473;28;20506;-69
2021/03/03 03:19:25;;;;;;;23.13;12.10;;;3.90;99.90;;;;;;5011304;28;20926;-68
2021/03/03 03:21:52;;;;;;;20.73;12.63;;;3.90;99.90;;;;;;5011255;28;20960;-70
2021/03/03 03:24:19;;;;;;;20.47;12.73;;;3.90;99.90;;;;;;5011493;28;20527;-68
2021/03/03 03:26:47;;;;;;;22.40;13.43;;;3.90;99.90;;;;;;5010670;28;20418;-69
2021/03/03 03:29:14;;;;;;;21.70;13.60;;;3.80;99.90;;;;;;5011399;28;20511;-69
2021/03/03 03:31:41;;;;;;;24.83;13.67;;;3.80;99.90;;;;;;5011254;28;21069;-69
2021/03/03 03:34:08;;;;;;;19.50;11.77;;;4.00;99.90;;;;;;5011490;28;20921;-68
2021/03/03 03:36:36;;;;;;;20.63;12.67;;;4.20;99.90;;;;;;5011127;28;20419;-69
2021/03/03 03:39:10;;;;;;;22.13;13.00;;;4.20;99.90;;;;;;5011002;28;20999;-70
2021/03/03 03:41:37;;;;;;;23.10;11.37;;;4.20;99.90;;;;;;5010852;28;20549;-68
2021/03/03 03:44:05;;;;;;;19.90;11.83;;;4.10;99.90;;;;;;5010992;28;20477;-69
2021/03/03 03:46:32;;;;;;;21.60;11.83;;;4.00;99.90;;;;;;5010885;28;20509;-69
2021/03/03 03:48:58;;;;;;;21.20;12.47;;;3.90;99.90;;;;;;5010908;28;20423;-70
2021/03/03 03:51:24;;;;;;;21.40;13.03;;;3.90;99.90;;;;;;4993434;28;20896;-69
2021/03/03 03:53:50;;;;;;;21.17;12.57;;;3.80;99.90;;;;;;5010962;28;20184;-69
2021/03/03 03:56:15;;;;;;;18.87;11.77;;;3.80;99.90;;;;;;5011286;28;20725;-69
2021/03/03 03:58:41;;;;;;;20.57;12.17;;;3.90;99.90;;;;;;5010818;28;20181;-68
2021/03/03 04:01:07;;;;;;;19.47;12.93;;;3.80;99.90;;;;;;5010739;28;20572;-68
2021/03/03 04:03:33;;;;;;;20.33;12.23;;;3.80;99.90;;;;;;5010769;28;20295;-68
2021/03/03 04:06:00;;;;;;;24.60;12.83;;;3.80;99.90;;;;;;5010799;28;20597;-69
2021/03/03 04:08:25;;;;;;;21.63;13.03;;;3.70;99.90;;;;;;5010554;28;20176;-69
2021/03/03 04:10:51;;;;;;;24.93;12.90;;;3.70;99.90;;;;;;5010688;28;20490;-69
2021/03/03 04:13:17;;;;;;;21.47;12.93;;;3.80;99.90;;;;;;5010435;28;20546;-69
2021/03/03 04:15:42;;;;;;;23.17;12.90;;;3.70;99.90;;;;;;5010883;28;20697;-69
2021/03/03 04:18:08;;;;;;;23.77;11.87;;;3.70;99.90;;;;;;5010403;28;20210;-69
2021/03/03 04:20:34;;;;;;;20.63;12.23;;;3.70;99.90;;;;;;5010344;28;20172;-69
2021/03/03 04:23:00;;;;;;;21.20;13.13;;;3.70;99.90;;;;;;5010335;28;20850;-68
2021/03/03 04:25:25;;;;;;;20.63;12.23;;;3.70;99.90;;;;;;5010198;28;20168;-68
2021/03/03 04:27:51;;;;;;;19.97;12.07;;;3.70;99.90;;;;;;5010569;28;20254;-69
2021/03/03 04:30:17;;;;;;;20.47;12.97;;;3.70;99.90;;;;;;5010301;28;20191;-68
2021/03/03 04:32:43;;;;;;;20.83;13.07;;;3.70;99.90;;;;;;5010540;28;20259;-68
2021/03/03 04:35:09;;;;;;;25.60;13.03;;;3.70;99.90;;;;;;5010456;28;20518;-69
2021/03/03 04:37:36;;;;;;;21.00;12.67;;;3.70;99.90;;;;;;5009095;28;20180;-67
2021/03/03 04:40:07;;;;;;;24.03;13.43;;;3.80;99.90;;;;;;5014190;28;20771;-69
2021/03/03 04:42:32;;;;;;;21.47;12.90;;;3.80;99.90;;;;;;5014500;28;20932;-69
2021/03/03 04:44:58;;;;;;;21.30;12.77;;;3.70;99.90;;;;;;5014252;28;20469;-69
2021/03/03 04:47:24;;;;;;;19.73;11.50;;;3.70;99.90;;;;;;5014234;28;20172;-69
2021/03/03 04:49:49;;;;;;;19.03;12.23;;;3.70;99.90;;;;;;5014060;28;20635;-69
2021/03/03 04:52:15;;;;;;;21.13;12.47;;;3.70;99.90;;;;;;5014323;28;20177;-69
2021/03/03 04:54:41;;;;;;;23.57;12.23;;;3.70;99.90;;;;;;5013930;28;20311;-69
2021/03/03 04:57:06;;;;;;;21.50;11.83;;;3.70;99.90;;;;;;5015244;28;20216;-69
2021/03/03 04:59:32;;;;;;;22.73;13.03;;;3.80;99.90;;;;;;5012833;28;20212;-68
2021/03/03 05:01:58;;;;;;;22.27;12.13;;;3.90;99.90;;;;;;5013708;28;20205;-68
2021/03/03 05:04:24;;;;;;;22.27;12.10;;;3.80;99.90;;;;;;5013944;28;20208;-69
2021/03/03 05:06:50;;;;;;;26.03;12.13;;;4.00;99.90;;;;;;5013936;28;20635;-68
2021/03/03 05:09:15;;;;;;;19.20;11.83;;;3.90;99.90;;;;;;5013873;28;20168;-69
2021/03/03 05:11:41;;;;;;;19.97;11.70;;;3.90;99.90;;;;;;5013722;28;20207;-69
2021/03/03 05:14:07;;;;;;;22.73;12.57;;;3.90;99.90;;;;;;5013831;28;20624;-68
2021/03/03 05:16:33;;;;;;;22.87;12.43;;;3.90;99.90;;;;;;5014077;28;20283;-71
2021/03/03 05:18:58;;;;;;;21.33;13.13;;;3.90;99.90;;;;;;5013882;28;20702;-69
2021/03/03 05:21:24;;;;;;;21.33;11.83;;;3.80;99.90;;;;;;5013628;28;20173;-69
2021/03/03 05:23:49;;;;;;;24.83;12.47;;;3.80;99.90;;;;;;5013774;28;20204;-68
2021/03/03 05:26:15;;;;;;;23.83;12.70;;;3.80;99.90;;;;;;5013855;28;20216;-69
2021/03/03 05:28:43;;;;;;;23.33;12.87;;;3.90;99.90;;;;;;5013895;28;20173;-69
2021/03/03 05:31:08;;;;;;;21.33;12.23;;;3.90;99.90;;;;;;5013633;28;20203;-68
2021/03/03 05:33:35;;;;;;;23.40;13.13;;;4.00;99.90;;;;;;5013433;28;20800;-69
2021/03/03 05:36:04;;;;;;;22.37;12.40;;;3.90;99.90;;;;;;5013083;28;20176;-68
2021/03/03 05:38:31;;;;;;;19.97;12.53;;;3.90;99.90;;;;;;5013081;28;20419;-68
2021/03/03 05:40:57;;;;;;;19.00;12.20;;;3.90;99.90;;;;;;5013365;28;20459;-68
2021/03/03 05:43:22;;;;;;;23.13;12.97;;;3.80;99.90;;;;;;5013263;28;20494;-68
2021/03/03 05:45:50;;;;;;;20.17;12.83;;;3.90;99.90;;;;;;5013149;28;20231;-69
2021/03/03 05:48:24;;;;;;;19.93;11.87;;;3.90;99.90;;;;;;5013351;28;20164;-69
2021/03/03 05:50:56;;;;;;;25.70;13.30;;;3.90;99.90;;;;;;5012369;28;20847;-69
2021/03/03 05:53:24;;;;;;;24.07;12.83;;;3.90;99.90;;;;;;5013094;28;20432;-68
2021/03/03 05:55:53;;;;;;;23.23;12.67;;;3.90;99.90;;;;;;5013898;28;20459;-68
2021/03/03 05:58:19;;;;;;;24.70;12.57;;;3.90;99.90;;;;;;5013227;28;20434;-69
2021/03/03 06:00:48;;;;;;;25.40;13.87;;;4.00;99.90;;;;;;5012929;28;20423;-68
2021/03/03 06:03:15;;;;;;;22.00;12.73;;;4.00;99.90;;;;;;5013012;28;20482;-69
2021/03/03 06:05:41;;;;;;;24.37;12.70;;;4.00;99.90;;;;;;5012764;28;20427;-68
2021/03/03 06:08:07;;;;;;;23.40;12.30;;;4.10;99.90;;;;;;5010964;28;20416;-68
2021/03/03 06:10:32;;;;;;;22.70;12.63;;;4.10;99.90;;;;;;5011278;28;20659;-69
2021/03/03 06:12:58;;;;;;;24.57;13.20;;;4.10;99.90;;;;;;5012312;28;20184;-69
2021/03/03 06:15:24;;;;;;;18.57;12.50;;;4.00;99.90;;;;;;5012495;28;20181;-71
2021/03/03 06:17:49;;;;;;;25.43;13.83;;;4.00;99.90;;;;;;5013290;28;20638;-70
2021/03/03 06:20:15;;;;;;;22.63;12.90;;;3.90;99.90;;;;;;5012347;28;20180;-69
2021/03/03 06:22:41;;;;;;;18.67;11.77;;;3.90;99.90;;;;;;5012575;28;20212;-69
2021/03/03 06:25:20;;;;;;;28.97;12.93;;;4.00;99.90;;;;;;5012091;28;20190;-69
2021/03/03 06:27:46;;;;;;;20.13;13.13;;;4.00;99.90;;;;;;5012627;28;20180;-68
2021/03/03 06:30:16;;;;;;;21.37;11.73;;;3.90;99.90;;;;;;5012138;28;20518;-68
2021/03/03 06:32:52;;;;;;;25.23;13.03;;;3.80;99.90;;;;;;5011963;28;20184;-67
2021/03/03 06:35:20;;;;;;;22.70;12.37;;;3.90;99.90;;;;;;5012075;28;20457;-68
2021/03/03 06:37:54;;;;;;;24.33;14.37;;;3.90;99.90;;;;;;5012433;28;20997;-70
2021/03/03 06:40:20;;;;;;;33.73;12.83;;;3.80;99.90;;;;;;4995007;28;20428;-69
2021/03/03 06:42:45;;;;;;;24.10;12.93;;;3.80;99.90;;;;;;5012153;28;20466;-68
2021/03/03 06:45:28;;;;;;;26.87;13.20;;;3.80;99.90;;;;;;5012179;28;20423;-67
2021/03/03 06:47:55;;;;;;;26.17;13.50;;;3.90;99.90;;;;;;5011614;28;20543;-71
2021/03/03 06:50:21;;;;;;;21.93;12.57;;;3.80;99.90;;;;;;5012403;28;20447;-70
2021/03/03 06:52:46;;;;;;;17.50;12.00;;;4.00;99.90;;;;;;5012460;28;21205;-68
2021/03/03 06:55:12;;;;;;;24.27;13.30;;;4.00;99.90;;;;;;5012174;28;20424;-69
2021/03/03 06:57:38;;;;;;;23.87;13.17;;;4.00;99.90;;;;;;5011547;28;20289;-68
2021/03/03 07:00:09;;;;;;;21.43;13.20;;;3.90;99.90;;;;;;5011876;28;20510;-67
2021/03/03 07:02:35;;;;;;;22.10;13.37;;;4.00;99.90;;;;;;5010928;28;20200;-67
2021/03/03 07:05:02;;;;;;;21.97;13.70;;;4.00;99.90;;;;;;5011698;28;20450;-67
2021/03/03 07:07:28;;;;;;;24.13;13.93;;;4.00;99.90;;;;;;5011763;28;20415;-67
2021/03/03 07:09:58;;;;;;;22.07;12.90;;;4.00;99.90;;;;;;5012112;28;20426;-67
2021/03/03 07:12:31;;;;;;;27.53;14.43;;;4.10;99.90;;;;;;5011891;28;20618;-68
2021/03/03 07:15:08;;;;;;;25.40;14.80;;;4.10;99.90;;;;;;5010701;28;20418;-68
2021/03/03 07:17:36;;;;;;;29.33;13.70;;;4.20;99.90;;;;;;4995371;28;20427;-67
2021/03/03 07:20:15;;;;;;;29.47;14.90;;;4.20;99.90;;;;;;5011638;28;20458;-66
2021/03/03 07:22:48;;;;;;;20.67;13.27;;;4.30;99.90;;;;;;5011348;28;20458;-68
2021/03/03 07:25:17;;;;;;;20.77;12.90;;;4.40;99.90;;;;;;5011389;28;20451;-69
2021/03/03 07:27:45;;;;;;;27.57;13.83;;;4.50;99.90;;;;;;5011277;28;20431;-69
2021/03/03 07:30:16;;;;;;;24.03;13.60;;;4.50;99.90;;;;;;5011812;28;20502;-69
2021/03/03 07:32:42;;;;;;;22.93;14.17;;;4.50;99.90;;;;;;5011446;28;20415;-69
2021/03/03 07:35:10;;;;;;;24.43;14.00;;;4.50;99.90;;;;;;5011200;28;20776;-68
2021/03/03 07:37:52;;;;;;;23.33;14.60;;;4.60;99.90;;;;;;5011362;28;20898;-66
2021/03/03 07:40:17;;;;;;;23.83;14.77;;;4.70;99.90;;;;;;5011353;28;20554;-68
2021/03/03 07:42:51;;;;;;;23.90;13.17;;;4.70;99.90;;;;;;5011011;28;20545;-67
2021/03/03 07:45:19;;;;;;;29.43;15.13;;;4.80;99.90;;;;;;5011242;28;20203;-66
2021/03/03 07:47:44;;;;;;;21.67;13.93;;;4.90;99.90;;;;;;5010555;28;20423;-68
2021/03/03 07:50:14;;;;;;;25.80;13.53;;;5.00;99.90;;;;;;5010844;28;20735;-68
2021/03/03 07:52:44;;;;;;;24.97;14.60;;;5.20;99.90;;;;;;5010635;28;20186;-69
2021/03/03 07:55:10;;;;;;;24.20;13.93;;;5.30;99.90;;;;;;5010843;28;20435;-70
2021/03/03 07:57:39;;;;;;;21.80;14.20;;;5.40;99.90;;;;;;5011178;28;20482;-68
2021/03/03 08:00:21;;;;;;;23.43;13.97;;;5.40;99.90;;;;;;5010484;28;20423;-67
2021/03/03 08:03:00;;;;;;;23.33;13.67;;;5.60;99.90;;;;;;5010559;28;20466;-68
2021/03/03 08:05:36;;;;;;;19.53;13.30;;;5.70;99.90;;;;;;5010360;28;20429;-68
2021/03/03 08:08:13;;;;;;;25.90;14.90;;;5.70;99.90;;;;;;5010741;28;20416;-68
2021/03/03 08:10:40;;;;;;;22.07;14.00;;;5.80;99.90;;;;;;5010741;28;20408;-67
2021/03/03 08:13:17;;;;;;;24.33;14.27;;;5.90;99.90;;;;;;5010424;28;20416;-68
2021/03/03 08:15:56;;;;;;;26.63;13.90;;;6.00;99.90;;;;;;5010860;28;20833;-69
2021/03/03 08:18:26;;;;;;;21.57;13.43;;;6.10;99.90;;;;;;5010647;28;20505;-68
2021/03/03 08:20:57;;;;;;;26.63;14.80;;;6.30;99.90;;;;;;5009256;28;20419;-69
2021/03/03 08:23:34;;;;;;;21.93;14.40;;;6.30;99.90;;;;;;5010264;28;20459;-68
2021/03/03 08:26:01;;;;;;;23.20;13.47;;;6.30;99.90;;;;;;5010452;28;20794;-69
2021/03/03 08:28:34;;;;;;;21.43;13.97;;;6.40;99.90;;;;;;5010530;28;20749;-67
2021/03/03 08:31:11;;;;;;;25.47;15.77;;;6.50;99.90;;;;;;5010441;28;20411;-68
2021/03/03 08:33:47;;;;;;;27.13;15.40;;;6.70;99.90;;;;;;5010291;28;20832;-68
2021/03/03 08:36:21;;;;;;;25.27;14.90;;;6.80;99.90;;;;;;5010479;28;20415;-69
2021/03/03 08:39:13;;;;;;;26.83;15.13;;;6.80;99.90;;;;;;5010429;28;20410;-70
2021/03/03 08:41:40;;;;;;;27.63;15.70;;;6.80;99.90;;;;;;5010320;28;20428;-69
2021/03/03 08:44:05;;;;;;;23.60;13.80;;;6.90;99.90;;;;;;5010441;28;20438;-69
2021/03/03 08:46:31;;;;;;;31.60;15.57;;;6.90;99.90;;;;;;5010422;28;20415;-68
2021/03/03 08:48:56;;;;;;;26.67;15.53;;;7.00;99.90;;;;;;5010571;28;20230;-67
2021/03/03 08:51:23;;;;;;;28.93;16.73;;;7.00;99.90;;;;;;5010571;28;20578;-68
2021/03/03 08:53:50;;;;;;;26.00;16.57;;;6.90;99.90;;;;;;5010624;28;20763;-67
2021/03/03 08:56:47;;;;;;;26.67;16.50;;;7.10;99.90;;;;;;5007149;28;20827;-69
2021/03/03 08:59:28;;;;;;;25.77;17.33;;;7.20;99.90;;;;;;4991079;28;20424;-69
2021/03/03 09:02:17;;;;;;;29.67;17.03;;;7.20;99.90;;;;;;4990743;28;20416;-68
2021/03/03 09:04:49;;;;;;;27.77;16.00;;;7.20;99.90;;;;;;4990812;28;20408;-69
2021/03/03 09:07:29;;;;;;;30.73;17.50;;;7.20;99.90;;;;;;4991052;28;20412;-69
2021/03/03 09:10:00;;;;;;;32.97;16.60;;;7.40;99.90;;;;;;4990846;28;21063;-68
2021/03/03 09:12:28;;;;;;;26.83;17.57;;;7.40;99.90;;;;;;4990829;28;20930;-68
2021/03/03 09:14:58;;;;;;;27.33;16.73;;;7.40;99.90;;;;;;4990551;28;20428;-66
2021/03/03 09:17:32;;;;;;;32.10;16.47;;;7.50;99.90;;;;;;4990757;28;20527;-68
2021/03/03 09:20:00;;;;;;;28.70;16.57;;;7.70;99.90;;;;;;4990805;28;20418;-67
2021/03/03 09:22:39;;;;;;;26.67;17.07;;;7.90;99.90;;;;;;4990726;28;20506;-69
2021/03/03 09:25:07;;;;;;;27.33;16.30;;;8.00;99.90;;;;;;4974992;28;20412;-69
2021/03/03 09:27:33;;;;;;;30.67;17.33;;;8.00;99.90;;;;;;4994202;28;20418;-66
2021/03/03 09:29:58;;;;;;;30.10;16.70;;;8.10;99.90;;;;;;4976894;28;20420;-69
2021/03/03 09:32:25;;;;;;;26.90;16.77;;;8.20;99.90;;;;;;4994200;28;20196;-68
2021/03/03 09:34:56;;;;;;;29.77;17.80;;;8.20;99.90;;;;;;4993049;28;20662;-67
2021/03/03 09:37:23;;;;;;;27.50;17.27;;;8.30;99.90;;;;;;4994246;28;20881;-68
2021/03/03 09:39:56;;;;;;;27.30;17.47;;;8.40;99.90;;;;;;4994158;28;20420;-68
2021/03/03 09:42:23;;;;;;;27.40;17.53;;;8.50;99.90;;;;;;4993866;28;20451;-67
2021/03/03 09:44:58;;;;;;;31.17;17.07;;;8.60;99.90;;;;;;4993812;28;20431;-69
2021/03/03 09:47:28;;;;;;;26.23;17.67;;;8.70;99.90;;;;;;4993987;28;20937;-68
2021/03/03 09:49:54;;;;;;;31.67;18.77;;;8.80;99.90;;;;;;4976374;28;20452;-66
2021/03/03 09:52:21;;;;;;;26.70;17.60;;;8.90;99.90;;;;;;4976594;28;20435;-69
2021/03/03 09:54:47;;;;;;;33.80;18.60;;;9.00;99.90;;;;;;4993917;28;20755;-66
2021/03/03 09:57:22;;;;;;;27.97;18.40;;;9.10;99.90;;;;;;4988041;28;20470;-67
2021/03/03 09:59:51;;;;;;;32.83;18.93;;;9.20;99.90;;;;;;5013506;28;20419;-68
2021/03/03 10:02:19;;;;;;;32.73;18.87;;;9.30;99.90;;;;;;5013249;28;20459;-67
2021/03/03 10:04:46;;;;;;;34.00;19.47;;;9.30;99.90;;;;;;5013347;28;20987;-69
2021/03/03 10:07:21;;;;;;;32.53;20.00;;;9.30;99.90;;;;;;5013329;28;20408;-67
2021/03/03 10:09:52;;;;;;;33.67;20.40;;;9.30;99.90;;;;;;5013222;28;20776;-67
2021/03/03 10:12:19;;;;;;;36.43;21.20;;;9.30;99.90;;;;;;5012844;28;20857;-68
2021/03/03 10:15:07;;;;;;;35.90;21.77;;;9.20;99.90;;;;;;5013009;28;20423;-69
2021/03/03 10:17:47;;;;;;;35.17;21.90;;;9.10;99.90;;;;;;5013653;28;20426;-66
2021/03/03 10:20:36;;;;;;;34.30;21.57;;;9.20;99.90;;;;;;5012479;28;20431;-68
2021/03/03 10:23:11;;;;;;;36.87;21.60;;;9.30;99.90;;;;;;5003464;28;20459;-67
2021/03/03 10:25:46;;;;;;;43.77;21.37;;;9.40;99.90;;;;;;5013435;28;20421;-68
2021/03/03 10:28:24;;;;;;;36.60;21.60;;;9.40;99.90;;;;;;5013033;28;20419;-66
2021/03/03 10:30:51;;;;;;;34.40;20.33;;;9.50;99.90;;;;;;5013389;28;20469;-66
2021/03/03 10:33:48;;;;;;;35.07;21.00;;;9.50;99.90;;;;;;5012957;28;20501;-68
2021/03/03 10:36:13;;;;;;;35.03;20.87;;;9.50;99.90;;;;;;4995536;28;20427;-69
2021/03/03 10:38:57;;;;;;;38.53;21.37;;;9.60;99.90;;;;;;5012965;28;20895;-68
2021/03/03 10:41:24;;;;;;;37.17;22.23;;;9.70;99.90;;;;;;5012601;28;20221;-64
2021/03/03 10:43:50;;;;;;;34.27;22.10;;;9.70;99.90;;;;;;5012919;28;20455;-68
2021/03/03 10:46:18;;;;;;;34.67;21.90;;;9.80;99.90;;;;;;5012956;28;20469;-67
2021/03/03 10:48:45;;;;;;;34.43;22.50;;;9.90;99.90;;;;;;5012789;28;20415;-67
2021/03/03 10:51:13;;;;;;;31.97;21.10;;;9.90;99.90;;;;;;5012794;28;20414;-67
2021/03/03 10:53:46;;;;;;;34.67;21.50;;;10.00;99.90;;;;;;5012673;28;20420;-68
2021/03/03 10:56:35;;;;;;;40.30;22.80;;;10.10;99.90;;;;;;5012775;28;20451;-66
2021/03/03 10:59:12;;;;;;;36.20;23.10;;;10.20;99.90;;;;;;5011668;28;20561;-67
2021/03/03 11:01:50;;;;;;;35.53;22.43;;;10.30;99.90;;;;;;5012022;28;20179;-67
2021/03/03 11:04:16;;;;;;;34.17;23.07;;;10.40;99.90;;;;;;5011311;28;20580;-67
2021/03/03 11:06:43;;;;;;;37.00;22.17;;;10.60;99.90;;;;;;5012283;28;20627;-68
2021/03/03 11:09:19;;;;;;;32.73;21.70;;;10.80;99.90;;;;;;5012263;28;20180;-67
2021/03/03 11:11:57;;;;;;;33.17;21.70;;;10.90;99.90;;;;;;5012121;28;20179;-67
2021/03/03 11:14:24;;;;;;;35.43;21.70;;;11.00;99.90;;;;;;5011069;28;20242;-69
2021/03/03 11:16:51;;;;;;;32.33;19.43;;;11.00;99.90;;;;;;5012113;28;20575;-68
2021/03/03 11:19:18;;;;;;;37.77;20.80;;;11.10;99.90;;;;;;5012366;28;20180;-65
2021/03/03 11:21:44;;;;;;;34.03;21.27;;;10.90;99.90;;;;;;5011629;28;20419;-67
2021/03/03 11:24:10;;;;;;;34.37;21.70;;;11.00;99.90;;;;;;5011987;28;20192;-67
2021/03/03 11:26:36;;;;;;;31.17;20.60;;;11.10;99.90;;;;;;5011415;28;20623;-67
2021/03/03 11:29:02;;;;;;;37.80;21.40;;;11.20;99.90;;;;;;5010612;28;20188;-67
2021/03/03 11:31:29;;;;;;;33.60;21.57;;;11.30;99.90;;;;;;5011954;28;20658;-69
2021/03/03 11:33:54;;;;;;;38.43;21.10;;;11.40;99.90;;;;;;5011746;28;20180;-67
2021/03/03 11:36:20;;;;;;;36.20;21.07;;;11.50;99.90;;;;;;5011612;28;20187;-68
2021/03/03 11:38:46;;;;;;;32.07;20.67;;;11.60;99.90;;;;;;5012122;28;20180;-68
2021/03/03 11:41:11;;;;;;;35.17;20.73;;;11.70;99.90;;;;;;5011338;28;20180;-68
2021/03/03 11:43:37;;;;;;;33.97;22.33;;;11.90;99.90;;;;;;5011226;28;20196;-68
2021/03/03 11:46:02;;;;;;;31.57;21.43;;;12.10;99.90;;;;;;5011100;28;20525;-66
2021/03/03 11:48:28;;;;;;;33.17;21.43;;;12.30;99.90;;;;;;5010330;28;20635;-67
2021/03/03 11:50:54;;;;;;;33.43;21.87;;;12.50;99.90;;;;;;5011138;28;20215;-67
2021/03/03 11:53:19;;;;;;;33.30;19.30;;;12.70;99.80;;;;;;5011059;28;20722;-69
2021/03/03 11:55:45;;;;;;;32.60;21.17;;;12.80;97.50;;;;;;5010808;28;20184;-68
2021/03/03 11:58:17;;;;;;;33.30;20.57;;;12.70;98.00;;;;;;5012374;28;20224;-68
2021/03/03 12:00:43;;;;;;;32.80;21.13;;;12.80;96.90;;;;;;5010851;28;20215;-68
2021/03/03 12:03:08;;;;;;;29.50;20.73;;;12.90;96.80;;;;;;5011152;28;20196;-68
2021/03/03 12:05:34;;;;;;;33.93;20.93;;;13.00;96.00;;;;;;4993043;28;20176;-68
2021/03/03 12:08:00;;;;;;;34.90;19.63;;;13.00;95.80;;;;;;5010809;28;20177;-69
2021/03/03 12:10:25;;;;;;;32.27;19.97;;;13.10;94.20;;;;;;5010999;28;20183;-69
2021/03/03 12:12:51;;;;;;;32.60;19.60;;;13.10;94.00;;;;;;5010535;28;20269;-69
2021/03/03 12:15:17;;;;;;;31.30;19.63;;;13.20;93.50;;;;;;5010853;28;20180;-69
2021/03/03 12:17:43;;;;;;;34.77;19.90;;;13.30;93.60;;;;;;5010586;28;20259;-69
2021/03/03 12:20:09;;;;;;;32.53;20.03;;;13.50;93.20;;;;;;5010588;28;20180;-68
2021/03/03 12:22:35;;;;;;;32.30;17.67;;;13.60;91.60;;;;;;5010754;28;20264;-68
2021/03/03 12:25:02;;;;;;;34.57;18.43;;;13.70;90.90;;;;;;5010239;28;20205;-70
2021/03/03 12:27:27;;;;;;;32.53;18.07;;;13.80;90.50;;;;;;5010550;28;20172;-67
2021/03/03 12:29:53;;;;;;;34.07;18.47;;;14.00;89.00;;;;;;5010398;28;20179;-68
2021/03/03 12:32:19;;;;;;;32.90;18.03;;;14.10;86.20;;;;;;5010453;28;20180;-66
2021/03/03 12:34:44;;;;;;;24.67;15.43;;;14.10;82.80;;;;;;5010672;28;20200;-67
2021/03/03 12:37:11;;;;;;;24.67;15.57;;;14.20;81.10;;;;;;5010623;28;20203;-68
2021/03/03 12:39:37;;;;;;;26.90;13.87;;;14.30;76.00;;;;;;5009420;28;20214;-67
2021/03/03 12:42:03;;;;;;;28.83;15.23;;;14.20;76.70;;;;;;5010342;28;20581;-68
2021/03/03 12:44:29;;;;;;;31.73;17.77;;;14.30;76.30;;;;;;5010171;28;20316;-68